DLH650 EDDF-UAAA
Flight info
| Callsign | DLH650 |
|---|---|
| Flight time | N/A |
| Altitude | 31000 |
| Route | CINDY8S/18 CINDY Z74 HAREM DCT ASLEP DCT TAKUT L603 BESNI/N0470F370 L605 MIQ DCT ALUTU DCT BIBAG Q104 AKIMA DCT ARSIN DCT GAZDA DCT TEGRI DCT DINRO N743 UDROS DCT CRM DCT ROLIN/N0472F390 DCT TAGAR DCT BT DCT BARAD M747 LUSAL N199 RASAM L88 METKA B476 TIMGA A480 OTBOR/K0854F390 N147 ELAHA Z621 ARBOL M610 TIPSA |
| Aircraft | A343/H-SDE2E3FGHIJ4J5M1RWXY/LB1D1 |
Departure
| Time | 2026-05-07 17:32 |
|---|---|
| Airport | Frankfurt Main Airport (EDDF) |
Arrival
| Time | N/A |
|---|---|
| Airport | Almaty International Airport (UAAA) |
| Time | Latitude | Longitude | Altitude | Speed | Heading |
|---|---|---|---|---|---|
| 2026-05-07 17:07 | 50.04653 | 8.57056 | 369 ft | 0 kts | 91° |
| 2026-05-07 17:18 | 50.04653 | 8.57039 | 365 ft | 2 kts | 91° |
| 2026-05-07 17:19 | 50.04653 | 8.57015 | 362 ft | 1 kts | 91° |
| 2026-05-07 17:19 | 50.04654 | 8.56999 | 362 ft | 1 kts | 91° |
| 2026-05-07 17:19 | 50.04654 | 8.56983 | 364 ft | 1 kts | 91° |
| 2026-05-07 17:19 | 50.04654 | 8.56967 | 365 ft | 1 kts | 101° |
| 2026-05-07 17:20 | 50.04656 | 8.56951 | 367 ft | 2 kts | 140° |
| 2026-05-07 17:20 | 50.04664 | 8.56940 | 369 ft | 2 kts | 192° |
| 2026-05-07 17:20 | 50.04658 | 8.56935 | 366 ft | 1 kts | 199° |
| 2026-05-07 17:20 | 50.04648 | 8.56929 | 363 ft | 1 kts | 199° |
| 2026-05-07 17:21 | 50.04645 | 8.56928 | 362 ft | 0 kts | 199° |
| 2026-05-07 17:21 | 50.04594 | 8.56905 | 366 ft | 14 kts | 192° |
| 2026-05-07 17:22 | 50.04498 | 8.56872 | 363 ft | 14 kts | 193° |
| 2026-05-07 17:22 | 50.04439 | 8.56790 | 371 ft | 13 kts | 246° |
| 2026-05-07 17:22 | 50.04400 | 8.56611 | 365 ft | 19 kts | 250° |
| 2026-05-07 17:22 | 50.04352 | 8.56416 | 363 ft | 19 kts | 250° |
| 2026-05-07 17:23 | 50.04306 | 8.56221 | 365 ft | 19 kts | 249° |
| 2026-05-07 17:23 | 50.04259 | 8.56027 | 365 ft | 19 kts | 249° |
| 2026-05-07 17:23 | 50.04213 | 8.55835 | 362 ft | 19 kts | 250° |
| 2026-05-07 17:23 | 50.04168 | 8.55643 | 365 ft | 19 kts | 250° |
| 2026-05-07 17:24 | 50.04122 | 8.55450 | 364 ft | 19 kts | 250° |
| 2026-05-07 17:24 | 50.04080 | 8.55275 | 364 ft | 16 kts | 249° |
| 2026-05-07 17:24 | 50.04041 | 8.55119 | 361 ft | 15 kts | 249° |
| 2026-05-07 17:24 | 50.04003 | 8.54964 | 363 ft | 16 kts | 249° |
| 2026-05-07 17:25 | 50.03958 | 8.54763 | 359 ft | 21 kts | 254° |
| 2026-05-07 17:25 | 50.03906 | 8.54551 | 360 ft | 21 kts | 249° |
| 2026-05-07 17:25 | 50.03864 | 8.54388 | 360 ft | 14 kts | 240° |
| 2026-05-07 17:25 | 50.03823 | 8.54291 | 358 ft | 13 kts | 234° |
| 2026-05-07 17:26 | 50.03786 | 8.54173 | 356 ft | 10 kts | 250° |
| 2026-05-07 17:26 | 50.03761 | 8.54063 | 356 ft | 13 kts | 250° |
| 2026-05-07 17:26 | 50.03723 | 8.53903 | 355 ft | 18 kts | 249° |
| 2026-05-07 17:26 | 50.03676 | 8.53705 | 354 ft | 20 kts | 249° |
| 2026-05-07 17:27 | 50.03633 | 8.53535 | 353 ft | 15 kts | 248° |
| 2026-05-07 17:27 | 50.03596 | 8.53382 | 351 ft | 15 kts | 249° |
| 2026-05-07 17:27 | 50.03559 | 8.53226 | 351 ft | 16 kts | 249° |
| 2026-05-07 17:27 | 50.03520 | 8.53066 | 353 ft | 16 kts | 249° |
| 2026-05-07 17:28 | 50.03480 | 8.52902 | 338 ft | 16 kts | 248° |
| 2026-05-07 17:28 | 50.03441 | 8.52763 | 336 ft | 0 kts | 248° |
| 2026-05-07 17:28 | 50.03440 | 8.52760 | 336 ft | 1 kts | 248° |
| 2026-05-07 17:28 | 50.03436 | 8.52744 | 336 ft | 2 kts | 249° |
| 2026-05-07 17:29 | 50.03434 | 8.52734 | 336 ft | 0 kts | 250° |
| 2026-05-07 17:30 | 50.03428 | 8.52708 | 334 ft | 8 kts | 250° |
| 2026-05-07 17:30 | 50.03404 | 8.52616 | 335 ft | 9 kts | 237° |
| 2026-05-07 17:30 | 50.03362 | 8.52595 | 336 ft | 5 kts | 180° |
| 2026-05-07 17:30 | 50.03360 | 8.52595 | 336 ft | 0 kts | 179° |
| 2026-05-07 17:31 | 50.03210 | 8.52598 | 339 ft | 49 kts | 179° |
| 2026-05-07 17:31 | 50.02693 | 8.52600 | 335 ft | 98 kts | 180° |
| 2026-05-07 17:31 | 50.01865 | 8.52610 | 338 ft | 138 kts | 180° |
| 2026-05-07 17:31 | 50.00785 | 8.52611 | 379 ft | 168 kts | 179° |
| 2026-05-07 17:32 | 49.99599 | 8.52626 | 766 ft | 171 kts | 180° |
| 2026-05-07 17:32 | 49.98383 | 8.52627 | 1184 ft | 182 kts | 179° |
| 2026-05-07 17:32 | 49.97538 | 8.52723 | 1479 ft | 187 kts | 169° |
| 2026-05-07 17:32 | 49.96334 | 8.53657 | 1710 ft | 206 kts | 131° |
| 2026-05-07 17:33 | 49.95259 | 8.56254 | 2291 ft | 225 kts | 116° |
| 2026-05-07 17:33 | 49.94520 | 8.58423 | 2999 ft | 229 kts | 115° |
| 2026-05-07 17:33 | 49.94045 | 8.60788 | 3634 ft | 234 kts | 96° |
| 2026-05-07 17:33 | 49.93895 | 8.63422 | 4045 ft | 254 kts | 91° |
| 2026-05-07 17:34 | 49.93806 | 8.66220 | 4700 ft | 264 kts | 92° |
| 2026-05-07 17:34 | 49.93395 | 8.69032 | 5398 ft | 272 kts | 115° |
| 2026-05-07 17:34 | 49.92199 | 8.71301 | 6166 ft | 275 kts | 142° |
| 2026-05-07 17:34 | 49.90656 | 8.73076 | 6927 ft | 278 kts | 146° |
| 2026-05-07 17:35 | 49.89084 | 8.74850 | 7652 ft | 282 kts | 140° |
| 2026-05-07 17:35 | 49.87820 | 8.77191 | 8397 ft | 286 kts | 122° |
| 2026-05-07 17:35 | 49.87147 | 8.78946 | 8893 ft | 288 kts | 119° |
| 2026-05-07 17:35 | 49.86171 | 8.81674 | 9623 ft | 291 kts | 118° |
| 2026-05-07 17:36 | 49.85188 | 8.84440 | 10264 ft | 296 kts | 120° |
| 2026-05-07 17:36 | 49.84159 | 8.87301 | 10577 ft | 312 kts | 120° |
| 2026-05-07 17:36 | 49.83069 | 8.90312 | 10832 ft | 329 kts | 120° |
| 2026-05-07 17:36 | 49.81915 | 8.93490 | 11021 ft | 348 kts | 120° |
| 2026-05-07 17:37 | 49.80699 | 8.96835 | 11222 ft | 364 kts | 120° |
| 2026-05-07 17:37 | 49.79407 | 9.00291 | 11568 ft | 375 kts | 121° |
| 2026-05-07 17:37 | 49.78040 | 9.03765 | 12132 ft | 381 kts | 122° |
| 2026-05-07 17:37 | 49.76635 | 9.07261 | 12723 ft | 385 kts | 122° |
| 2026-05-07 17:38 | 49.75208 | 9.10801 | 13289 ft | 390 kts | 122° |
| 2026-05-07 17:38 | 49.73770 | 9.14386 | 13900 ft | 394 kts | 122° |
| 2026-05-07 17:38 | 49.72328 | 9.18002 | 14441 ft | 398 kts | 122° |
| 2026-05-07 17:38 | 49.70876 | 9.21667 | 14995 ft | 401 kts | 122° |
| 2026-05-07 17:39 | 49.69412 | 9.25355 | 15531 ft | 405 kts | 122° |
| 2026-05-07 17:39 | 49.67932 | 9.29082 | 16079 ft | 408 kts | 122° |
| 2026-05-07 17:39 | 49.66439 | 9.32832 | 16629 ft | 412 kts | 122° |
| 2026-05-07 17:39 | 49.64933 | 9.36612 | 17164 ft | 416 kts | 122° |
| 2026-05-07 17:40 | 49.63410 | 9.40430 | 17713 ft | 419 kts | 122° |
| 2026-05-07 17:40 | 49.61874 | 9.44281 | 18246 ft | 423 kts | 122° |
| 2026-05-07 17:40 | 49.60324 | 9.48164 | 18708 ft | 426 kts | 122° |
| 2026-05-07 17:40 | 49.58760 | 9.52068 | 19178 ft | 429 kts | 122° |
| 2026-05-07 17:41 | 49.57186 | 9.55987 | 19653 ft | 432 kts | 123° |
| 2026-05-07 17:41 | 49.55599 | 9.59932 | 20129 ft | 435 kts | 123° |
| 2026-05-07 17:41 | 49.53999 | 9.63904 | 20601 ft | 438 kts | 123° |
| 2026-05-07 17:41 | 49.52391 | 9.67891 | 21061 ft | 440 kts | 123° |
| 2026-05-07 17:42 | 49.50769 | 9.71909 | 21520 ft | 443 kts | 123° |
| 2026-05-07 17:42 | 49.49143 | 9.75929 | 22014 ft | 445 kts | 123° |
| 2026-05-07 17:42 | 49.47502 | 9.79987 | 22436 ft | 448 kts | 123° |
| 2026-05-07 17:42 | 49.45853 | 9.84063 | 22879 ft | 450 kts | 123° |
| 2026-05-07 17:43 | 49.44192 | 9.88156 | 23291 ft | 453 kts | 123° |
| 2026-05-07 17:43 | 49.42514 | 9.92278 | 23658 ft | 456 kts | 123° |
| 2026-05-07 17:43 | 49.40826 | 9.96418 | 24001 ft | 459 kts | 123° |
| 2026-05-07 17:43 | 49.39148 | 10.00525 | 24344 ft | 461 kts | 123° |
| 2026-05-07 17:44 | 49.37443 | 10.04697 | 24684 ft | 463 kts | 123° |
| 2026-05-07 17:44 | 49.35728 | 10.08886 | 25026 ft | 465 kts | 123° |
| 2026-05-07 17:44 | 49.34005 | 10.13096 | 25361 ft | 466 kts | 123° |
| 2026-05-07 17:44 | 49.32275 | 10.17316 | 25696 ft | 468 kts | 123° |
| 2026-05-07 17:45 | 49.30537 | 10.21541 | 26035 ft | 470 kts | 123° |
| 2026-05-07 17:45 | 49.28785 | 10.25789 | 26338 ft | 472 kts | 123° |
| 2026-05-07 17:45 | 49.27023 | 10.30056 | 26549 ft | 477 kts | 123° |
| 2026-05-07 17:45 | 49.25241 | 10.34350 | 26858 ft | 478 kts | 124° |
| 2026-05-07 17:46 | 49.23253 | 10.38431 | 27168 ft | 478 kts | 132° |
| 2026-05-07 17:46 | 49.20999 | 10.42164 | 27518 ft | 479 kts | 135° |
| 2026-05-07 17:46 | 49.18655 | 10.45798 | 27819 ft | 480 kts | 136° |
| 2026-05-07 17:46 | 49.16268 | 10.49374 | 28113 ft | 482 kts | 137° |
| 2026-05-07 17:47 | 49.13853 | 10.52932 | 28393 ft | 483 kts | 137° |
| 2026-05-07 17:47 | 49.11428 | 10.56493 | 28676 ft | 485 kts | 137° |
| 2026-05-07 17:47 | 49.08993 | 10.60068 | 28938 ft | 486 kts | 137° |
| 2026-05-07 17:47 | 49.06552 | 10.63653 | 29209 ft | 487 kts | 137° |
| 2026-05-07 17:48 | 49.04113 | 10.67245 | 29476 ft | 489 kts | 137° |
| 2026-05-07 17:48 | 49.01762 | 10.70995 | 29815 ft | 490 kts | 131° |
| 2026-05-07 17:48 | 48.99764 | 10.75185 | 30197 ft | 490 kts | 122° |
| 2026-05-07 17:48 | 48.98247 | 10.79829 | 30484 ft | 490 kts | 110° |
| 2026-05-07 17:49 | 48.97466 | 10.84874 | 30737 ft | 491 kts | 98° |
| 2026-05-07 17:49 | 48.96745 | 10.89949 | 30946 ft | 491 kts | 107° |
| 2026-05-07 17:49 | 48.95706 | 10.94891 | 31186 ft | 491 kts | 110° |
| 2026-05-07 17:49 | 48.94560 | 10.99783 | 31443 ft | 491 kts | 111° |
| 2026-05-07 17:50 | 48.93395 | 11.04657 | 31681 ft | 491 kts | 110° |
| 2026-05-07 17:50 | 48.92242 | 11.09561 | 31854 ft | 493 kts | 110° |
| 2026-05-07 17:50 | 48.91115 | 11.14474 | 32088 ft | 493 kts | 110° |
| 2026-05-07 17:50 | 48.90010 | 11.19407 | 32368 ft | 492 kts | 109° |
| 2026-05-07 17:51 | 48.88921 | 11.24334 | 32618 ft | 492 kts | 109° |
| 2026-05-07 17:51 | 48.87839 | 11.29265 | 32854 ft | 492 kts | 109° |
| 2026-05-07 17:51 | 48.86757 | 11.34198 | 33096 ft | 492 kts | 109° |
| 2026-05-07 17:51 | 48.85675 | 11.39122 | 33328 ft | 492 kts | 109° |
| 2026-05-07 17:52 | 48.84588 | 11.44050 | 33560 ft | 492 kts | 109° |
| 2026-05-07 17:52 | 48.83498 | 11.48979 | 33735 ft | 493 kts | 110° |
| 2026-05-07 17:52 | 48.82402 | 11.53915 | 33934 ft | 493 kts | 110° |
| 2026-05-07 17:52 | 48.81304 | 11.58844 | 34153 ft | 493 kts | 110° |
| 2026-05-07 17:53 | 48.80205 | 11.63771 | 34321 ft | 493 kts | 110° |
| 2026-05-07 17:53 | 48.79103 | 11.68692 | 34492 ft | 493 kts | 110° |
| 2026-05-07 17:53 | 48.77999 | 11.73617 | 34651 ft | 493 kts | 110° |
| 2026-05-07 17:53 | 48.76893 | 11.78538 | 34819 ft | 493 kts | 110° |
| 2026-05-07 17:54 | 48.75786 | 11.83451 | 34972 ft | 493 kts | 110° |
| 2026-05-07 17:54 | 48.74671 | 11.88387 | 35039 ft | 496 kts | 110° |
| 2026-05-07 17:54 | 48.72433 | 11.98258 | 35044 ft | 499 kts | 110° |
| 2026-05-07 17:55 | 48.70178 | 12.08164 | 35040 ft | 496 kts | 110° |
| 2026-05-07 17:55 | 48.67918 | 12.18043 | 35039 ft | 496 kts | 111° |
| 2026-05-07 17:56 | 48.65637 | 12.27969 | 35038 ft | 497 kts | 111° |
| 2026-05-07 17:56 | 48.63374 | 12.37771 | 35033 ft | 497 kts | 111° |
| 2026-05-07 17:57 | 48.61454 | 12.46050 | 35039 ft | 498 kts | 111° |
| 2026-05-07 17:57 | 48.58780 | 12.57530 | 35039 ft | 499 kts | 111° |
| 2026-05-07 17:58 | 48.56468 | 12.67410 | 35040 ft | 499 kts | 111° |
| 2026-05-07 17:58 | 48.54148 | 12.77273 | 35037 ft | 499 kts | 111° |
| 2026-05-07 17:59 | 48.51820 | 12.87130 | 35037 ft | 499 kts | 111° |
| 2026-05-07 17:59 | 48.49483 | 12.96976 | 35037 ft | 499 kts | 111° |
| 2026-05-07 18:00 | 48.47137 | 13.06817 | 35038 ft | 499 kts | 112° |
| 2026-05-07 18:00 | 48.44783 | 13.16649 | 35040 ft | 499 kts | 112° |
| 2026-05-07 18:01 | 48.42418 | 13.26483 | 35036 ft | 499 kts | 112° |
| 2026-05-07 18:01 | 48.40069 | 13.36308 | 35037 ft | 499 kts | 111° |
| 2026-05-07 18:02 | 48.36723 | 13.51081 | 35033 ft | 499 kts | 111° |
| 2026-05-07 18:03 | 48.34479 | 13.60957 | 35033 ft | 499 kts | 111° |
| 2026-05-07 18:03 | 48.32214 | 13.70803 | 35034 ft | 498 kts | 111° |
| 2026-05-07 18:04 | 48.29935 | 13.80636 | 35034 ft | 498 kts | 111° |
| 2026-05-07 18:04 | 48.27646 | 13.90461 | 35029 ft | 498 kts | 112° |
| 2026-05-07 18:05 | 48.25354 | 14.00265 | 35031 ft | 498 kts | 112° |
| 2026-05-07 18:05 | 48.23052 | 14.10065 | 35024 ft | 498 kts | 112° |
| 2026-05-07 18:06 | 48.20744 | 14.19847 | 35019 ft | 498 kts | 112° |
| 2026-05-07 18:06 | 48.18439 | 14.29572 | 35016 ft | 499 kts | 112° |
| 2026-05-07 18:07 | 48.16106 | 14.39372 | 35023 ft | 500 kts | 112° |
| 2026-05-07 18:07 | 48.13758 | 14.49191 | 35029 ft | 501 kts | 112° |
| 2026-05-07 18:08 | 48.11404 | 14.58992 | 35024 ft | 500 kts | 112° |
| 2026-05-07 18:08 | 48.09041 | 14.68789 | 35019 ft | 500 kts | 113° |
| 2026-05-07 18:09 | 48.06679 | 14.78535 | 35168 ft | 497 kts | 113° |
| 2026-05-07 18:09 | 48.05501 | 14.83383 | 35386 ft | 496 kts | 113° |
| 2026-05-07 18:09 | 48.04322 | 14.88222 | 35573 ft | 495 kts | 113° |
| 2026-05-07 18:09 | 48.03143 | 14.93048 | 35747 ft | 495 kts | 113° |
| 2026-05-07 18:10 | 48.01961 | 14.97876 | 35867 ft | 495 kts | 113° |
| 2026-05-07 18:10 | 48.00778 | 15.02697 | 35985 ft | 495 kts | 113° |
| 2026-05-07 18:10 | 47.99591 | 15.07527 | 36105 ft | 495 kts | 114° |
| 2026-05-07 18:10 | 47.98401 | 15.12357 | 36260 ft | 496 kts | 114° |
| 2026-05-07 18:11 | 47.97208 | 15.17186 | 36412 ft | 495 kts | 114° |
| 2026-05-07 18:11 | 47.96419 | 15.20376 | 36515 ft | 495 kts | 114° |
| 2026-05-07 18:11 | 47.94821 | 15.26826 | 36713 ft | 495 kts | 114° |
| 2026-05-07 18:11 | 47.93625 | 15.31639 | 36834 ft | 495 kts | 114° |
| 2026-05-07 18:12 | 47.92426 | 15.36459 | 36967 ft | 495 kts | 114° |
| 2026-05-07 18:12 | 47.90011 | 15.46117 | 37021 ft | 499 kts | 114° |
| 2026-05-07 18:13 | 47.87598 | 15.55739 | 37026 ft | 499 kts | 114° |
| 2026-05-07 18:13 | 47.85163 | 15.65406 | 37014 ft | 499 kts | 114° |
| 2026-05-07 18:14 | 47.82719 | 15.75068 | 37020 ft | 499 kts | 114° |
| 2026-05-07 18:14 | 47.80267 | 15.84719 | 37015 ft | 499 kts | 115° |
| 2026-05-07 18:15 | 47.77804 | 15.94370 | 37019 ft | 499 kts | 115° |
| 2026-05-07 18:15 | 47.75334 | 16.04012 | 37014 ft | 499 kts | 115° |
| 2026-05-07 18:16 | 47.72854 | 16.13648 | 37012 ft | 499 kts | 115° |
| 2026-05-07 18:16 | 47.70371 | 16.23258 | 37014 ft | 498 kts | 115° |
| 2026-05-07 18:17 | 47.67881 | 16.32853 | 37010 ft | 497 kts | 115° |
| 2026-05-07 18:17 | 47.65390 | 16.42414 | 37010 ft | 497 kts | 115° |
| 2026-05-07 18:18 | 47.62889 | 16.51968 | 37007 ft | 497 kts | 115° |
| 2026-05-07 18:18 | 47.60380 | 16.61519 | 37006 ft | 497 kts | 115° |
| 2026-05-07 18:19 | 47.57863 | 16.71058 | 37000 ft | 497 kts | 115° |
| 2026-05-07 18:19 | 47.55330 | 16.80581 | 37002 ft | 497 kts | 116° |
| 2026-05-07 18:20 | 47.52728 | 16.90061 | 37002 ft | 497 kts | 116° |
| 2026-05-07 18:20 | 47.50553 | 16.97916 | 36995 ft | 496 kts | 117° |
| 2026-05-07 18:21 | 47.47515 | 17.08888 | 36992 ft | 496 kts | 117° |
| 2026-05-07 18:21 | 47.44897 | 17.18327 | 36994 ft | 496 kts | 117° |
| 2026-05-07 18:22 | 47.42701 | 17.26225 | 36990 ft | 496 kts | 117° |
| 2026-05-07 18:22 | 47.40089 | 17.35584 | 36992 ft | 495 kts | 117° |
| 2026-05-07 18:23 | 47.37459 | 17.44972 | 36994 ft | 494 kts | 117° |
| 2026-05-07 18:23 | 47.34823 | 17.54337 | 36989 ft | 494 kts | 117° |
| 2026-05-07 18:24 | 47.32179 | 17.63696 | 36996 ft | 494 kts | 117° |
| 2026-05-07 18:24 | 47.29529 | 17.73039 | 36992 ft | 494 kts | 117° |
| 2026-05-07 18:25 | 47.26873 | 17.82368 | 36997 ft | 494 kts | 117° |
| 2026-05-07 18:25 | 47.24209 | 17.91689 | 36999 ft | 494 kts | 118° |
| 2026-05-07 18:26 | 47.21539 | 18.00997 | 36999 ft | 494 kts | 118° |
| 2026-05-07 18:26 | 47.18855 | 18.10317 | 36998 ft | 495 kts | 118° |
| 2026-05-07 18:27 | 47.16167 | 18.19615 | 36999 ft | 494 kts | 118° |
| 2026-05-07 18:27 | 47.13488 | 18.28850 | 36999 ft | 494 kts | 118° |
| 2026-05-07 18:28 | 47.10784 | 18.38135 | 36999 ft | 494 kts | 118° |
| 2026-05-07 18:28 | 47.08074 | 18.47405 | 37000 ft | 494 kts | 118° |
| 2026-05-07 18:29 | 47.05355 | 18.56667 | 37002 ft | 494 kts | 118° |
| 2026-05-07 18:29 | 47.02631 | 18.65915 | 37002 ft | 494 kts | 118° |
| 2026-05-07 18:30 | 46.99900 | 18.75152 | 36999 ft | 494 kts | 118° |
| 2026-05-07 18:30 | 46.97164 | 18.84371 | 37000 ft | 493 kts | 118° |
| 2026-05-07 18:31 | 46.94425 | 18.93566 | 37002 ft | 492 kts | 118° |
| 2026-05-07 18:31 | 46.91681 | 19.02741 | 37003 ft | 492 kts | 118° |
| 2026-05-07 18:32 | 46.88929 | 19.11913 | 36994 ft | 492 kts | 118° |
| 2026-05-07 18:32 | 46.86173 | 19.21063 | 37000 ft | 491 kts | 118° |
| 2026-05-07 18:33 | 46.83416 | 19.30182 | 37000 ft | 491 kts | 118° |
| 2026-05-07 18:33 | 46.80651 | 19.39293 | 36999 ft | 491 kts | 118° |
| 2026-05-07 18:34 | 46.77868 | 19.48388 | 36974 ft | 490 kts | 118° |
| 2026-05-07 18:34 | 46.75066 | 19.57441 | 36996 ft | 489 kts | 119° |
| 2026-05-07 18:35 | 46.72282 | 19.66406 | 36982 ft | 489 kts | 119° |
| 2026-05-07 18:35 | 46.69466 | 19.75454 | 37008 ft | 491 kts | 119° |
| 2026-05-07 18:36 | 46.66640 | 19.84508 | 36993 ft | 491 kts | 118° |
| 2026-05-07 18:36 | 46.63812 | 19.93540 | 37003 ft | 490 kts | 118° |
| 2026-05-07 18:37 | 46.60982 | 20.02548 | 36998 ft | 489 kts | 118° |
| 2026-05-07 18:37 | 46.58142 | 20.11549 | 37001 ft | 489 kts | 119° |
| 2026-05-07 18:38 | 46.55297 | 20.20535 | 37001 ft | 489 kts | 119° |
| 2026-05-07 18:38 | 46.52446 | 20.29512 | 37001 ft | 489 kts | 119° |
| 2026-05-07 18:39 | 46.49587 | 20.38481 | 37002 ft | 489 kts | 119° |
| 2026-05-07 18:39 | 46.46722 | 20.47437 | 37001 ft | 489 kts | 119° |
| 2026-05-07 18:40 | 46.43851 | 20.56379 | 36996 ft | 488 kts | 119° |